Time;durP1;ratioP1;P1;durP2;ratioP2;P2;SDS_P1;SDS_P2;PMS_P1;PMS_P2;Temp;Humidity;BMP_temperature;BMP_pressure;BME280_temperature;BME280_humidity;BME280_pressure;Samples;Min_cycle;Max_cycle;Signal;HPM_P1;HPM_P2
2022/08/23 00:02:06;;;;;;;12.50;4.63;;;;;;;25.11;100.00;101228.72;5034434;28;20046;-63
2022/08/23 00:04:36;;;;;;;15.07;3.93;;;;;;;25.04;100.00;101223.56;5034154;28;20034;-63
2022/08/23 00:07:03;;;;;;;8.57;3.70;;;;;;;25.02;100.00;101228.50;5034380;28;20061;-63
2022/08/23 00:09:29;;;;;;;11.13;4.50;;;;;;;24.93;100.00;101227.47;5032329;28;20117;-63
2022/08/23 00:12:14;;;;;;;;;;;;;;;24.98;100.00;101221.97;5034598;28;20030;-63
2022/08/23 00:14:44;;;;;;;9.07;4.20;;;;;;;25.00;100.00;101224.41;5030748;28;19913;-63
2022/08/23 00:17:10;;;;;;;6.93;3.77;;;;;;;24.95;100.00;101218.97;5034376;28;20089;-64
2022/08/23 00:19:38;;;;;;;15.87;4.60;;;;;;;24.76;100.00;101216.91;5032533;28;20041;-63
2022/08/23 00:22:04;;;;;;;15.43;4.63;;;;;;;24.87;100.00;101217.66;5034309;28;20044;-62
2022/08/23 00:24:30;;;;;;;14.37;4.93;;;;;;;24.83;100.00;101216.59;5030647;28;20033;-63
2022/08/23 00:27:03;;;;;;;11.93;4.68;;;;;;;24.84;100.00;101216.31;5033062;28;20034;-63
2022/08/23 00:29:42;;;;;;;13.97;5.97;;;;;;;24.78;100.00;101214.69;5033300;28;20097;-63
2022/08/23 00:32:12;;;;;;;19.53;5.10;;;;;;;24.78;100.00;101217.44;5047264;28;20026;-62
2022/08/23 00:34:38;;;;;;;7.60;4.67;;;;;;;24.68;100.00;101218.31;5035180;28;20060;-63
2022/08/23 00:37:04;;;;;;;9.43;4.82;;;;;;;24.70;100.00;101216.09;5029982;28;20061;-63
2022/08/23 00:39:30;;;;;;;10.30;5.53;;;;;;;24.69;100.00;101221.84;5043038;28;20064;-63
2022/08/23 00:47:38;;;;;;;11.25;4.43;;;;;;;24.63;100.00;101219.13;5038062;28;20037;-63
2022/08/23 00:47:39;;;;;;;9.50;5.23;;;;;;;24.68;100.00;101221.03;5041364;28;20033;-64
2022/08/23 00:50:22;;;;;;;13.97;4.90;;;;;;;24.71;100.00;101220.47;5014955;28;20041;-63
2022/08/23 00:53:19;;;;;;;12.20;5.13;;;;;;;24.66;100.00;101220.47;5032604;28;20060;-63
2022/08/23 00:55:49;;;;;;;9.57;5.13;;;;;;;24.62;100.00;101217.50;5049888;28;20033;-63
2022/08/23 00:58:18;;;;;;;13.67;4.50;;;;;;;24.61;100.00;101220.50;5025790;28;20060;-64
2022/08/23 01:00:45;;;;;;;12.63;4.37;;;;;;;24.48;100.00;101225.50;5042763;28;20034;-64
2022/08/23 01:03:12;;;;;;;15.43;4.87;;;;;;;24.46;100.00;101229.59;5046565;28;20048;-64
2022/08/23 01:06:21;;;;;;;16.23;4.87;;;;;;;24.51;100.00;101234.25;5025986;28;20026;-64
2022/08/23 01:08:56;;;;;;;14.53;4.20;;;;;;;24.49;100.00;101232.59;5036227;28;20037;-64
2022/08/23 01:11:32;;;;;;;11.50;4.20;;;;;;;24.54;100.00;101236.41;5038693;28;20037;-63
2022/08/23 01:14:20;;;;;;;11.17;4.60;;;;;;;24.60;100.00;101230.66;5037141;28;20026;-64
2022/08/23 01:16:58;;;;;;;9.03;4.17;;;;;;;24.53;100.00;101230.13;5019985;28;20104;-65
2022/08/23 01:19:31;;;;;;;8.47;4.13;;;;;;;24.42;100.00;101229.34;5020423;28;20045;-64
2022/08/23 01:22:12;;;;;;;10.63;4.57;;;;;;;24.34;100.00;101222.56;5049441;28;20026;-64
2022/08/23 01:24:39;;;;;;;11.53;5.33;;;;;;;24.39;100.00;101221.69;5031844;28;20041;-64
2022/08/23 01:27:06;;;;;;;11.50;4.23;;;;;;;24.37;100.00;101226.63;5048737;28;20041;-64
2022/08/23 01:29:32;;;;;;;7.83;4.20;;;;;;;24.34;100.00;101228.03;5043308;28;20048;-64
2022/08/23 01:31:58;;;;;;;16.33;4.43;;;;;;;24.34;100.00;101224.47;5021254;28;20026;-63
2022/08/23 01:34:25;;;;;;;;;;;;;;;24.30;100.00;101221.47;5049196;28;20042;-63
2022/08/23 01:36:52;;;;;;;7.50;4.50;;;;;;;24.36;100.00;101219.53;5032096;28;19944;-63
2022/08/23 01:39:18;;;;;;;10.80;4.70;;;;;;;24.40;100.00;101226.06;5032317;28;20068;-63
2022/08/23 01:41:44;;;;;;;10.40;5.10;;;;;;;24.43;100.00;101225.50;5043965;28;20030;-63
2022/08/23 01:44:09;;;;;;;10.55;4.45;;;;;;;24.45;100.00;101223.34;5025549;28;20038;-64
2022/08/23 01:46:36;;;;;;;14.30;5.28;;;;;;;24.47;100.00;101225.78;5039856;28;20030;-64
2022/08/23 01:49:05;;;;;;;11.83;4.67;;;;;;;24.46;100.00;101226.88;5007261;28;20049;-64
2022/08/23 01:51:32;;;;;;;12.17;5.13;;;;;;;24.46;100.00;101222.25;5025602;28;20132;-63
2022/08/23 01:53:59;;;;;;;11.87;4.60;;;;;;;24.44;100.00;101224.41;5016088;28;20054;-64
2022/08/23 01:56:26;;;;;;;14.00;5.10;;;;;;;24.47;100.00;101223.88;5032567;28;20051;-64
2022/08/23 01:58:52;;;;;;;9.82;4.40;;;;;;;24.48;100.00;101222.78;5023437;28;20100;-64
2022/08/23 02:01:17;;;;;;;10.35;4.90;;;;;;;24.44;100.00;101221.69;5005224;28;20030;-64
2022/08/23 02:03:44;;;;;;;12.70;4.97;;;;;;;24.48;100.00;101228.25;5050240;28;20045;-65
2022/08/23 02:06:10;;;;;;;12.93;5.67;;;;;;;24.45;100.00;101223.34;5018889;28;20042;-65
2022/08/23 02:11:24;;;;;;;15.67;5.93;;;;;;;24.38;100.00;101224.72;5033962;28;20022;-64
2022/08/23 02:13:53;;;;;;;12.67;5.93;;;;;;;24.33;100.00;101225.56;5044962;28;20037;-64
2022/08/23 02:16:30;;;;;;;11.23;5.23;;;;;;;24.40;100.00;101226.06;5044082;28;20026;-63
2022/08/23 02:18:57;;;;;;;8.07;5.07;;;;;;;24.45;100.00;101223.34;5053620;28;20036;-63
2022/08/23 02:21:25;;;;;;;8.20;5.53;;;;;;;24.35;100.00;101220.63;5044052;28;20093;-64
2022/08/23 02:23:50;;;;;;;13.60;5.93;;;;;;;24.32;100.00;101211.06;5027840;28;20065;-64
2022/08/23 02:26:17;;;;;;;10.38;5.57;;;;;;;24.32;100.00;101213.78;5046010;28;20029;-64
2022/08/23 02:28:45;;;;;;;11.93;5.37;;;;;;;24.30;100.00;101213.25;5033649;28;20041;-64
2022/08/23 02:31:11;;;;;;;8.85;4.75;;;;;;;24.32;100.00;101219.25;5034948;28;20029;-64
2022/08/23 02:33:37;;;;;;;12.90;5.47;;;;;;;24.26;100.00;101214.13;5051439;28;20037;-64
2022/08/23 02:36:03;;;;;;;18.13;6.95;;;;;;;24.17;100.00;101214.69;5016722;28;20077;-64
2022/08/23 02:38:29;;;;;;;12.52;6.75;;;;;;;24.17;100.00;101214.69;5000196;28;20042;-64
2022/08/23 02:40:55;;;;;;;19.48;8.60;;;;;;;24.15;100.00;101219.59;5013996;28;20046;-64
2022/08/23 02:43:20;;;;;;;15.88;6.85;;;;;;;24.16;100.00;101220.44;5016828;28;20080;-64
2022/08/23 02:45:46;;;;;;;13.13;7.15;;;;;;;24.12;100.00;101219.38;5025413;28;20046;-62
2022/08/23 02:48:12;;;;;;;17.10;7.07;;;;;;;24.08;100.00;101219.09;5018177;28;20172;-63
2022/08/23 02:50:48;;;;;;;19.03;7.17;;;;;;;24.07;100.00;101225.66;5001820;28;20034;-64
2022/08/23 02:53:15;;;;;;;20.15;7.82;;;;;;;24.12;100.00;101236.56;5016176;28;20030;-64
2022/08/23 02:55:46;;;;;;;14.77;5.50;;;;;;;23.71;100.00;101245.63;5032738;28;20097;-64
2022/08/23 02:58:12;;;;;;;17.47;7.63;;;;;;;23.72;100.00;101241.81;5030949;28;20042;-65
2022/08/23 03:00:38;;;;;;;15.00;6.30;;;;;;;23.75;100.00;101252.16;5017533;28;20040;-64
2022/08/23 03:03:04;;;;;;;14.73;6.78;;;;;;;23.85;100.00;101248.59;5021315;28;20031;-64
2022/08/23 03:05:30;;;;;;;13.77;7.77;;;;;;;23.08;100.00;101254.03;5020070;28;20034;-64
2022/08/23 03:07:56;;;;;;;12.55;7.75;;;;;;;23.19;100.00;101261.97;5026614;28;20025;-65
2022/08/23 03:10:22;;;;;;;16.45;8.52;;;;;;;23.11;100.00;101245.31;5014864;28;20038;-65
2022/08/23 03:12:53;;;;;;;13.83;7.70;;;;;;;23.38;100.00;101263.38;5014773;28;20034;-65
2022/08/23 03:15:19;;;;;;;14.25;7.45;;;;;;;23.41;100.00;101249.19;4999179;28;20073;-64
2022/08/23 03:17:45;;;;;;;14.35;7.95;;;;;;;23.47;100.00;101264.47;5018164;28;20039;-64
2022/08/23 03:20:11;;;;;;;18.47;8.00;;;;;;;23.46;100.00;101262.81;5017606;28;20038;-65
2022/08/23 03:22:39;;;;;;;19.23;7.83;;;;;;;23.54;100.00;101259.56;5032172;28;20101;-64
2022/08/23 03:25:04;;;;;;;;;;;;;;;23.56;100.00;101268.31;5032833;28;20033;-64
2022/08/23 03:27:42;;;;;;;17.95;8.00;;;;;;;23.41;100.00;101266.38;5026092;28;19913;-65
2022/08/23 03:30:08;;;;;;;15.57;8.07;;;;;;;23.38;100.00;101272.38;5012562;28;20049;-64
2022/08/23 03:32:34;;;;;;;15.07;8.07;;;;;;;23.46;100.00;101271.84;5015707;28;20048;-64
2022/08/23 03:35:00;;;;;;;13.70;7.57;;;;;;;23.53;100.00;101266.13;5017615;28;20045;-64
2022/08/23 03:37:26;;;;;;;21.70;9.35;;;;;;;23.62;100.00;101272.66;5015911;28;20049;-64
2022/08/23 03:39:53;;;;;;;23.07;9.73;;;;;;;23.59;100.00;101281.41;5021035;28;20046;-65
2022/08/23 03:42:18;;;;;;;19.85;8.00;;;;;;;23.64;100.00;101272.38;5016650;28;20432;-64
2022/08/23 03:44:44;;;;;;;18.02;8.52;;;;;;;23.64;100.00;101277.81;5032364;28;20042;-65
2022/08/23 03:47:11;;;;;;;17.13;8.23;;;;;;;23.54;100.00;101278.66;5026696;28;20034;-64
2022/08/23 03:49:38;;;;;;;17.53;8.93;;;;;;;23.57;100.00;101275.41;5014321;28;20026;-65
2022/08/23 03:52:05;;;;;;;19.35;9.52;;;;;;;23.69;100.00;101282.47;4991627;28;20035;-65
2022/08/23 03:54:32;;;;;;;20.13;8.87;;;;;;;23.73;100.00;101284.41;5022289;28;20035;-65
2022/08/23 03:57:01;;;;;;;;;;;;;;;23.85;100.00;101286.84;5015561;28;20034;-65
2022/08/23 03:59:33;;;;;;;32.90;16.23;;;;;;;23.86;100.00;101291.22;5010597;28;19913;-65
2022/08/23 04:01:59;;;;;;;32.27;16.40;;;;;;;23.80;100.00;101284.13;5014319;28;20121;-63
2022/08/23 04:04:26;;;;;;;;;;;;;;;23.86;100.00;101283.03;5013455;28;20098;-64
2022/08/23 04:07:11;;;;;;;42.43;21.60;;;;;;;23.84;100.00;101285.22;5026815;28;19936;-64
2022/08/23 04:09:37;;;;;;;;;;;;;;;23.82;100.00;101281.94;5014645;28;20125;-65
2022/08/23 04:12:03;;;;;;;26.30;12.53;;;;;;;23.70;100.00;101284.94;5030330;28;19917;-65
2022/08/23 04:14:29;;;;;;;28.80;15.25;;;;;;;23.77;100.00;101288.22;5013297;28;20056;-66
2022/08/23 04:16:54;;;;;;;40.35;22.90;;;;;;;23.81;100.00;101293.13;5022682;28;20042;-66
2022/08/23 04:19:20;;;;;;;39.08;19.27;;;;;;;23.88;100.00;101283.56;5013516;28;20038;-66
2022/08/23 04:21:59;;;;;;;31.30;15.70;;;;;;;23.86;100.00;101287.66;5029726;28;20038;-65
2022/08/23 04:24:32;;;;;;;31.10;14.47;;;;;;;23.69;100.00;101287.94;4999670;28;20052;-64
2022/08/23 04:26:58;;;;;;;44.38;24.02;;;;;;;23.60;100.00;101296.69;5015028;28;20031;-64
2022/08/23 04:29:24;;;;;;;30.37;15.43;;;;;;;23.62;100.00;101293.66;5013818;28;20019;-65
2022/08/23 04:31:49;;;;;;;24.90;13.15;;;;;;;23.60;100.00;101291.22;5013041;28;20027;-65
2022/08/23 04:34:16;;;;;;;46.03;19.63;;;;;;;23.59;100.00;101289.59;5031807;28;20045;-65
2022/08/23 04:36:42;;;;;;;23.30;12.45;;;;;;;23.60;100.00;101291.22;5016922;28;20038;-66
2022/08/23 04:39:08;;;;;;;27.52;15.07;;;;;;;23.61;100.00;101292.03;5013129;28;20074;-65
2022/08/23 04:44:21;;;;;;;23.60;12.33;;;;;;;23.60;100.00;101291.22;5024767;28;20029;-66
2022/08/23 04:46:48;;;;;;;20.03;10.30;;;;;;;23.65;100.00;101297.78;5015149;28;20029;-64
2022/08/23 04:49:18;;;;;;;33.67;14.87;;;;;;;23.71;100.00;101292.03;5030091;28;20041;-66
2022/08/23 04:51:44;;;;;;;21.40;11.13;;;;;;;23.80;100.00;101295.03;5021876;28;20026;-65
2022/08/23 04:54:10;;;;;;;28.73;15.17;;;;;;;23.81;100.00;101302.16;5013442;28;20076;-65
2022/08/23 04:56:43;;;;;;;40.97;20.37;;;;;;;23.90;100.00;101300.50;4997955;28;20105;-65
2022/08/23 04:59:09;;;;;;;28.97;14.23;;;;;;;23.99;100.00;101289.81;5000187;28;20038;-65
2022/08/23 05:01:36;;;;;;;24.93;11.00;;;;;;;24.02;100.00;101293.97;4997592;28;20039;-65
2022/08/23 05:04:03;;;;;;;22.23;11.45;;;;;;;24.01;100.00;101295.88;5015128;28;20056;-64
2022/08/23 05:06:30;;;;;;;23.40;9.87;;;;;;;24.00;100.00;101299.66;5012915;28;20098;-65
2022/08/23 05:08:56;;;;;;;19.77;11.17;;;;;;;24.01;100.00;101295.03;5023159;28;20030;-66
2022/08/23 05:11:22;;;;;;;15.88;10.02;;;;;;;24.05;100.00;101296.13;5015786;28;20029;-66
2022/08/23 05:13:48;;;;;;;;;;;;;;;24.00;100.00;101299.66;5013681;28;20030;-65
2022/08/23 05:16:15;;;;;;;14.77;9.93;;;;;;;23.98;100.00;101290.91;5017855;28;19924;-65
2022/08/23 05:18:49;;;;;;;22.47;11.87;;;;;;;24.04;100.00;101294.50;5003849;28;20106;-65
2022/08/23 05:21:19;;;;;;;24.08;10.77;;;;;;;24.13;100.00;101292.84;5016245;28;20030;-64
2022/08/23 05:23:46;;;;;;;22.80;11.83;;;;;;;24.17;100.00;101293.91;5016587;28;20121;-64
2022/08/23 05:26:16;;;;;;;19.93;10.40;;;;;;;24.16;100.00;101297.75;5015551;28;20027;-65
2022/08/23 05:28:45;;;;;;;17.73;10.00;;;;;;;24.23;100.00;101302.13;5017916;28;20045;-65
2022/08/23 05:31:19;;;;;;;25.33;11.03;;;;;;;24.28;100.00;101300.16;5017139;28;20025;-65
2022/08/23 05:33:50;;;;;;;17.77;11.03;;;;;;;24.31;100.00;101309.75;5035725;28;20041;-65
2022/08/23 05:36:22;;;;;;;19.97;9.47;;;;;;;24.32;100.00;101319.56;5018724;28;20104;-65
2022/08/23 05:38:52;;;;;;;19.02;9.57;;;;;;;24.39;100.00;101322.81;5029571;28;20030;-65
2022/08/23 05:41:18;;;;;;;19.63;11.00;;;;;;;24.43;100.00;101332.09;5018547;28;20047;-65
2022/08/23 05:43:46;;;;;;;25.43;12.70;;;;;;;24.44;100.00;101336.47;5015390;28;20026;-66
2022/08/23 05:46:14;;;;;;;21.30;13.47;;;;;;;24.50;100.00;101340.03;5029268;28;20040;-66
2022/08/23 05:48:46;;;;;;;25.43;12.60;;;;;;;24.58;100.00;101336.72;5011611;28;20029;-65
2022/08/23 05:51:18;;;;;;;17.70;11.00;;;;;;;24.61;100.00;101340.81;5011424;28;20046;-65
2022/08/23 05:53:46;;;;;;;22.63;10.90;;;;;;;24.66;100.00;101338.06;5027431;28;20026;-65
2022/08/23 05:56:25;;;;;;;16.73;10.23;;;;;;;24.76;100.00;101334.50;5014453;28;20030;-65
2022/08/23 05:58:57;;;;;;;24.33;10.57;;;;;;;24.84;100.00;101333.09;5034803;28;20033;-65
2022/08/23 06:01:23;;;;;;;18.63;9.70;;;;;;;24.88;100.00;101334.16;5023565;28;20034;-65
2022/08/23 06:03:52;;;;;;;21.73;10.83;;;;;;;24.98;100.00;101331.41;5010711;28;20042;-65
2022/08/23 06:06:19;;;;;;;;;;;;;;;24.98;100.00;101338.78;5015912;28;20041;-65
2022/08/23 06:08:46;;;;;;;27.85;10.63;;;;;;;25.02;100.00;101339.84;5024148;28;19913;-65
2022/08/23 06:11:18;;;;;;;28.20;10.77;;;;;;;25.13;100.00;101346.06;5027581;28;20044;-65
2022/08/23 06:13:49;;;;;;;22.77;10.50;;;;;;;25.19;100.00;101350.44;5031512;28;20026;-65
2022/08/23 06:16:18;;;;;;;19.87;10.40;;;;;;;25.25;100.00;101345.75;5020735;28;20033;-66
2022/08/23 06:18:45;;;;;;;19.43;10.57;;;;;;;25.30;100.00;101354.75;5033097;28;20093;-66
2022/08/23 06:21:36;;;;;;;20.60;10.93;;;;;;;25.34;100.00;101347.59;5019034;28;20080;-65
2022/08/23 06:24:02;;;;;;;27.73;10.60;;;;;;;25.46;100.00;101355.47;5017855;28;20030;-64
2022/08/23 06:26:38;;;;;;;24.73;10.50;;;;;;;25.55;100.00;101352.16;5011046;28;20057;-65
2022/08/23 06:29:07;;;;;;;34.40;10.83;;;;;;;25.66;100.00;101361.94;5015960;28;20053;-64
2022/08/23 06:31:47;;;;;;;25.30;9.33;;;;;;;25.72;100.00;101362.72;5013672;28;20026;-65
2022/08/23 06:34:32;;;;;;;21.43;9.47;;;;;;;25.80;100.00;101359.34;5012797;28;20065;-65
2022/08/23 06:37:16;;;;;;;18.87;9.30;;;;;;;25.85;100.00;101364.81;5006525;28;20034;-66
2022/08/23 06:40:02;;;;;;;23.23;9.93;;;;;;;25.83;100.00;101360.72;5015734;28;20040;-65
2022/08/23 06:42:47;;;;;;;20.60;10.70;;;;;;;25.79;100.00;101363.19;5014770;28;20030;-65
2022/08/23 06:45:21;;;;;;;19.47;10.53;;;;;;;25.61;100.00;101361.97;5014296;28;20045;-64
2022/08/23 06:47:48;;;;;;;24.13;11.27;;;;;;;25.52;100.00;101359.00;5030283;28;20089;-65
2022/08/23 06:50:14;;;;;;;21.20;10.68;;;;;;;25.54;100.00;101358.75;5015449;28;20093;-65
2022/08/23 06:53:15;;;;;;;17.47;11.97;;;;;;;25.32;100.00;101352.53;5009645;28;20065;-69
2022/08/23 06:55:59;;;;;;;19.77;10.83;;;;;;;25.17;100.00;101356.19;5015018;28;20044;-69
2022/08/23 06:58:32;;;;;;;22.97;12.40;;;;;;;25.02;100.00;101359.81;5015398;28;20061;-66
2022/08/23 07:01:17;;;;;;;23.90;12.48;;;;;;;24.84;100.00;101366.75;5015020;28;20126;-65
2022/08/23 07:04:13;;;;;;;18.70;12.40;;;;;;;24.59;100.00;101364.88;5012931;28;20097;-64
2022/08/23 07:07:00;;;;;;;21.57;11.90;;;;;;;24.72;100.00;101361.56;5014872;28;20041;-65
2022/08/23 07:09:27;;;;;;;21.97;13.33;;;;;;;24.60;100.00;101361.88;5013761;28;20038;-65
2022/08/23 07:11:54;;;;;;;22.23;12.60;;;;;;;24.72;100.00;101363.47;5014204;28;20049;-64
2022/08/23 07:14:22;;;;;;;26.80;13.77;;;;;;;24.73;100.00;101357.72;5014687;28;20382;-64
2022/08/23 07:16:50;;;;;;;24.73;14.10;;;;;;;24.75;100.00;101366.50;5014838;28;20034;-66
2022/08/23 07:19:20;;;;;;;22.17;14.23;;;;;;;24.73;100.00;101365.09;5013832;28;20040;-64
2022/08/23 07:21:46;;;;;;;22.67;14.27;;;;;;;24.70;100.00;101355.56;5013295;28;20122;-66
2022/08/23 07:24:12;;;;;;;29.30;15.07;;;;;;;24.72;100.00;101372.50;5014668;28;20038;-66
2022/08/23 07:26:40;;;;;;;20.50;14.00;;;;;;;24.79;100.00;101369.47;5029610;28;20034;-65
2022/08/23 07:29:09;;;;;;;22.50;13.23;;;;;;;24.88;100.00;101373.28;5013813;28;20049;-67
2022/08/23 07:31:43;;;;;;;24.87;14.47;;;;;;;25.00;100.00;101369.41;5014146;28;20034;-65
2022/08/23 07:34:10;;;;;;;20.73;12.73;;;;;;;24.96;100.00;101377.38;5033246;28;20031;-65
2022/08/23 07:36:41;;;;;;;23.00;12.57;;;;;;;25.22;100.00;101371.78;5020568;28;20037;-66
2022/08/23 07:39:08;;;;;;;24.90;13.77;;;;;;;25.21;100.00;101381.09;5042129;28;20040;-65
2022/08/23 07:41:34;;;;;;;31.57;14.27;;;;;;;25.29;100.00;101382.41;5041001;28;20064;-65
2022/08/23 07:44:02;;;;;;;21.40;14.13;;;;;;;25.48;100.00;101380.66;5045822;28;20037;-66
2022/08/23 07:46:30;;;;;;;26.40;13.97;;;;;;;25.72;100.00;101388.19;5045811;28;20093;-66
2022/08/23 07:48:57;;;;;;;24.47;15.43;;;;;;;25.61;100.00;101395.66;5030794;28;20093;-66
2022/08/23 07:51:33;;;;;;;36.60;16.63;;;;;;;25.80;100.00;101397.69;5025587;28;20032;-65
2022/08/23 07:54:06;;;;;;;25.47;16.30;;;;;;;26.01;100.00;101392.06;5040086;28;20294;-65
2022/08/23 07:56:36;;;;;;;;;;;;;;;25.88;100.00;101399.84;5039742;28;20037;-65
2022/08/23 07:59:09;;;;;;;28.57;14.53;;;;;;;26.14;100.00;101394.16;5040549;28;20026;-65
2022/08/23 08:01:42;;;;;;;24.00;14.43;;;;;;;26.14;100.00;101404.28;5041867;28;20060;-66
2022/08/23 08:04:11;;;;;;;26.03;13.90;;;;;;;26.07;100.00;101407.38;5018887;28;20037;-66
2022/08/23 08:06:49;;;;;;;21.33;12.43;;;;;;;26.45;100.00;101396.63;5021218;28;20110;-66
2022/08/23 08:09:19;;;;;;;19.33;10.97;;;;;;;26.43;100.00;101401.56;5004573;28;20063;-66
2022/08/23 08:11:47;;;;;;;23.80;12.13;;;;;;;26.59;100.00;101401.44;5020623;28;20085;-65
2022/08/23 08:14:17;;;;;;;27.77;12.60;;;;;;;26.59;100.00;101401.44;5016880;28;20097;-65
2022/08/23 08:16:51;;;;;;;21.50;11.40;;;;;;;26.55;100.00;101408.59;5018537;28;20120;-65
2022/08/23 08:19:33;;;;;;;23.27;11.67;;;;;;;26.77;100.00;101408.06;5047323;28;20041;-65
2022/08/23 08:22:19;;;;;;;81.00;43.30;;;;;;;26.76;100.00;101418.25;5016398;28;20041;-64
2022/08/23 08:25:05;;;;;;;35.03;21.10;;;;;;;26.87;100.00;101412.66;5037620;28;20331;-63
2022/08/23 08:27:31;;;;;;;56.20;32.47;;;;;;;27.10;100.00;101416.47;5039268;28;20037;-66
2022/08/23 08:29:56;;;;;;;;;;;;;;;27.48;100.00;101419.25;5027440;28;20037;-65
2022/08/23 08:32:23;;;;;;;28.00;14.33;;;;;;;27.57;100.00;101419.44;5044405;28;19929;-64
2022/08/23 08:34:49;;;;;;;;;;;;;;;27.52;100.00;101422.28;5022161;28;20109;-65
2022/08/23 08:37:16;;;;;;;80.40;46.47;;;;;;;27.93;100.00;101420.81;5011458;28;19921;-66
2022/08/23 08:39:44;;;;;;;54.93;29.30;;;;;;;27.86;100.00;101429.44;5012828;28;20098;-65
2022/08/23 08:42:11;;;;;;;77.87;37.97;;;;;;;28.28;100.00;101426.88;5028271;28;20457;-65
2022/08/23 08:44:56;;;;;;;36.83;19.23;;;;;;;28.16;100.00;101430.09;5012221;28;20065;-64
2022/08/23 08:47:42;;;;;;;44.27;25.63;;;;;;;28.34;100.00;101427.56;5012211;28;20065;-65
2022/08/23 08:50:25;;;;;;;53.33;30.23;;;;;;;28.43;100.00;101433.19;5012220;28;20098;-66
2022/08/23 08:53:08;;;;;;;45.33;23.23;;;;;;;28.56;100.00;101437.09;5015664;28;20038;-67
2022/08/23 08:56:01;;;;;;;27.83;15.20;;;;;;;28.76;100.00;101441.41;5016781;28;20038;-66
2022/08/23 08:58:44;;;;;;;25.80;15.33;;;;;;;28.75;100.00;101445.28;5016102;28;20038;-64
2022/08/23 09:01:11;;;;;;;23.27;11.48;;;;;;;29.00;100.00;101437.66;5015481;28;20031;-65
2022/08/23 09:03:39;;;;;;;25.67;12.93;;;;;;;29.14;100.00;101443.94;5016152;28;20114;-65
2022/08/23 09:06:19;;;;;;;24.33;13.20;;;;;;;29.15;100.00;101444.78;5015296;28;20034;-65
2022/08/23 09:08:45;;;;;;;25.05;12.95;;;;;;;29.05;100.00;101443.84;5017337;28;20089;-65
2022/08/23 09:11:49;;;;;;;29.08;14.65;;;;;;;29.29;100.00;101442.00;5033178;28;20033;-65
2022/08/23 09:14:36;;;;;;;35.25;21.30;;;;;;;29.60;100.00;101436.66;5008747;28;20038;-66
2022/08/23 09:17:19;;;;;;;80.65;46.75;;;;;;;30.17;100.00;101443.56;5014843;28;20026;-66
2022/08/23 09:19:48;;;;;;;195.93;119.45;;;;;;;30.33;98.45;101441.25;5032780;28;20126;-65
2022/08/23 09:22:22;;;;;;;46.42;25.45;;;;;;;30.45;95.42;101453.63;5016021;28;20049;-65
2022/08/23 09:24:47;;;;;;;30.35;17.35;;;;;;;30.71;93.84;101448.25;5016284;28;20026;-65
2022/08/23 09:27:21;;;;;;;30.38;15.48;;;;;;;30.94;90.86;101445.41;5001302;28;20045;-66
2022/08/23 09:29:59;;;;;;;27.25;16.58;;;;;;;30.99;90.45;101450.78;5015668;28;20097;-66
2022/08/23 09:32:36;;;;;;;19.73;12.25;;;;;;;30.77;92.48;101451.66;5016265;28;20030;-66
2022/08/23 09:35:14;;;;;;;21.63;10.52;;;;;;;30.90;91.35;101456.28;4989112;28;20050;-65
2022/08/23 09:38:13;;;;;;;19.05;9.93;;;;;;;30.85;91.46;101456.44;5013895;28;20026;-66
2022/08/23 09:40:46;;;;;;;19.90;8.93;;;;;;;31.79;85.45;101464.75;5012993;28;20121;-66
2022/08/23 09:43:18;;;;;;;15.82;7.28;;;;;;;31.12;87.63;101459.25;5031006;28;20033;-67
2022/08/23 09:45:47;;;;;;;12.25;7.35;;;;;;;32.32;81.59;101465.50;5031189;28;20050;-66
2022/08/23 09:48:14;;;;;;;16.05;6.60;;;;;;;33.00;77.20;101459.25;5030619;28;20037;-64
2022/08/23 09:50:53;;;;;;;18.60;7.95;;;;;;;33.42;73.41;101460.41;5030313;28;20058;-63
2022/08/23 09:53:26;;;;;;;14.35;5.97;;;;;;;34.38;65.76;101457.94;4998443;28;20030;-69
2022/08/23 09:55:56;;;;;;;8.40;3.55;;;;;;;34.10;62.89;101464.91;5014025;28;20042;-66
2022/08/23 09:58:40;;;;;;;12.00;3.72;;;;;;;33.93;65.11;101468.66;5014936;28;20038;-66
2022/08/23 10:01:19;;;;;;;15.27;3.78;;;;;;;34.15;62.93;101452.81;5029777;28;20037;-66
2022/08/23 10:04:16;;;;;;;15.35;4.00;;;;;;;34.24;58.98;101456.28;5013808;28;20094;-64
2022/08/23 10:06:44;;;;;;;13.50;3.60;;;;;;;35.27;58.03;101459.22;5013781;28;20041;-65
2022/08/23 10:09:31;;;;;;;19.35;10.02;;;;;;;34.87;55.70;101465.53;5013325;28;20030;-65
2022/08/23 10:12:01;;;;;;;92.90;56.92;;;;;;;34.98;56.10;101461.09;5013722;28;20102;-66
2022/08/23 10:14:29;;;;;;;37.25;20.38;;;;;;;34.74;54.93;101457.19;5029631;28;20049;-66
2022/08/23 10:17:09;;;;;;;14.52;5.47;;;;;;;34.71;55.62;101457.06;5014263;28;20026;-66
2022/08/23 10:20:03;;;;;;;15.68;4.32;;;;;;;34.31;56.98;101461.28;5013243;28;20038;-64
2022/08/23 10:22:40;;;;;;;20.33;6.38;;;;;;;34.30;58.21;101449.38;5028895;28;20102;-66
2022/08/23 10:25:37;;;;;;;12.45;4.78;;;;;;;33.83;60.31;101461.56;5014050;28;20057;-64
2022/08/23 10:31:41;;;;;;;22.25;4.75;;;;;;;33.70;62.92;101459.91;5013756;28;20039;-64
2022/08/23 10:37:28;;;;;;;28.60;10.23;;;;;;;34.71;59.65;101454.28;5090027;28;20387;-65
2022/08/23 10:40:01;;;;;;;55.55;34.28;;;;;;;35.81;56.43;101456.41;5092016;28;20040;-66
2022/08/23 10:42:37;;;;;;;13.50;6.82;;;;;;;35.30;55.39;101453.00;5087850;28;20021;-66
2022/08/23 10:45:24;;;;;;;11.65;5.78;;;;;;;35.94;53.21;101460.78;5095756;28;20024;-66
2022/08/23 10:48:00;;;;;;;18.48;9.88;;;;;;;35.97;53.03;101453.66;5089439;28;20036;-65
2022/08/23 10:50:50;;;;;;;7.78;4.00;;;;;;;35.84;51.99;101448.19;5088376;28;20036;-66
2022/08/23 10:53:19;;;;;;;9.30;4.60;;;;;;;36.18;51.02;101445.13;5089431;28;20046;-66
2022/08/23 10:56:01;;;;;;;8.27;3.80;;;;;;;37.55;47.11;101453.09;5090150;28;20033;-66
2022/08/23 10:58:35;;;;;;;13.45;3.70;;;;;;;38.22;44.08;101455.97;5094232;28;20032;-66
2022/08/23 11:01:02;;;;;;;10.88;3.60;;;;;;;38.14;44.18;101458.63;5088879;28;20029;-68
2022/08/23 11:03:34;;;;;;;8.77;3.22;;;;;;;38.50;43.35;101450.09;5087324;28;20055;-67
2022/08/23 11:06:24;;;;;;;11.68;3.63;;;;;;;38.40;42.83;101447.88;5091420;28;20040;-65
2022/08/23 11:09:20;;;;;;;8.63;2.90;;;;;;;38.35;42.57;101451.81;5090857;28;20032;-65
2022/08/23 11:12:10;;;;;;;9.38;2.15;;;;;;;37.84;42.63;101444.50;5086520;28;20045;-66
2022/08/23 11:14:45;;;;;;;5.63;1.77;;;;;;;38.29;41.52;101445.72;5100280;28;20040;-64
2022/08/23 11:17:54;;;;;;;53.70;30.45;;;;;;;37.90;41.99;101447.78;5093774;28;20048;-65
2022/08/23 11:20:48;;;;;;;13.98;7.05;;;;;;;36.97;43.04;101451.81;5088380;28;20059;-66
2022/08/23 11:23:58;;;;;;;15.35;7.97;;;;;;;38.58;41.55;101442.63;5093287;28;20025;-65
2022/08/23 11:26:25;;;;;;;;;;;;;;;38.77;40.73;101444.50;5093301;28;20036;-66
2022/08/23 11:29:06;;;;;;;;;;;;;;;39.19;38.92;101451.09;5101403;28;19912;-63
2022/08/23 11:31:49;;;;;;;15.68;7.47;;;;;;;39.97;37.18;101451.66;5096049;28;19919;-64
2022/08/23 11:34:24;;;;;;;22.33;11.10;;;;;;;39.29;38.84;101450.44;5092894;28;20059;-65
2022/08/23 11:37:17;;;;;;;11.48;3.42;;;;;;;40.06;37.36;101451.34;5095604;28;20032;-64
2022/08/23 11:39:58;;;;;;;13.20;2.38;;;;;;;39.41;37.56;101457.00;5096388;28;20036;-64
2022/08/23 11:42:41;;;;;;;9.57;2.60;;;;;;;38.54;38.64;101464.13;5099934;28;20024;-64
2022/08/23 11:45:36;;;;;;;6.72;2.00;;;;;;;38.58;38.41;101459.38;5096503;28;20032;-62
2022/08/23 11:48:16;;;;;;;11.88;2.08;;;;;;;39.20;37.42;101451.91;5081578;28;20036;-61
2022/08/23 11:51:10;;;;;;;5.35;1.65;;;;;;;39.78;37.33;101461.00;5076624;28;20044;-63
2022/08/23 11:53:58;;;;;;;13.93;1.75;;;;;;;40.11;36.66;101450.97;5084136;28;20028;-63